Time;durP1;ratioP1;P1;durP2;ratioP2;P2;SDS_P1;SDS_P2;PMS_P1;PMS_P2;Temp;Humidity;BMP_temperature;BMP_pressure;BME280_temperature;BME280_humidity;BME280_pressure;Samples;Min_cycle;Max_cycle;Signal;HPM_P1;HPM_P2
2023/05/10 00:00:34;;;;;;;0.67;0.47;;;12.40;99.90;;;;;;6158534;23;20017;-83
2023/05/10 00:03:00;;;;;;;2.53;0.60;;;12.30;99.90;;;;;;6134283;23;20016;-83
2023/05/10 00:05:26;;;;;;;0.60;0.50;;;12.30;99.90;;;;;;6159356;23;20086;-82
2023/05/10 00:07:51;;;;;;;0.40;0.40;;;12.40;99.90;;;;;;6134324;23;20042;-83
2023/05/10 00:10:17;;;;;;;0.60;0.37;;;12.30;99.90;;;;;;6159435;23;20052;-83
2023/05/10 00:12:43;;;;;;;2.27;1.10;;;12.30;99.90;;;;;;6159319;23;20029;-82
2023/05/10 00:15:09;;;;;;;1.00;0.57;;;12.30;99.90;;;;;;6159071;23;20031;-82
2023/05/10 00:17:35;;;;;;;0.40;0.40;;;12.30;99.90;;;;;;6135117;23;20091;-82
2023/05/10 00:20:00;;;;;;;1.30;0.80;;;12.30;99.90;;;;;;6159087;23;20072;-82
2023/05/10 00:22:26;;;;;;;1.27;0.67;;;12.30;99.90;;;;;;6159411;23;20024;-82
2023/05/10 00:24:52;;;;;;;0.87;0.60;;;12.30;99.90;;;;;;6158589;23;20028;-88
2023/05/10 00:27:18;;;;;;;1.70;0.80;;;12.30;99.90;;;;;;6159750;23;20017;-82
2023/05/10 00:29:43;;;;;;;1.73;0.53;;;12.30;99.90;;;;;;6134271;23;20508;-82
2023/05/10 00:32:09;;;;;;;1.73;0.70;;;12.30;99.90;;;;;;6158218;23;20020;-82
2023/05/10 00:34:35;;;;;;;2.47;0.63;;;12.30;99.90;;;;;;6158854;23;20058;-82
2023/05/10 00:37:01;;;;;;;0.93;0.77;;;12.30;99.90;;;;;;6158406;23;20017;-83
2023/05/10 00:39:28;;;;;;;0.93;0.73;;;12.30;99.90;;;;;;6110114;23;20071;-82
2023/05/10 00:41:54;;;;;;;0.57;0.47;;;12.20;99.90;;;;;;6158285;23;20021;-90
2023/05/10 00:44:20;;;;;;;2.10;0.90;;;12.30;99.90;;;;;;6133992;23;20013;-83
2023/05/10 00:46:47;;;;;;;0.60;0.60;;;12.20;99.90;;;;;;6158302;23;20021;-82
2023/05/10 00:49:13;;;;;;;0.47;0.43;;;12.20;99.90;;;;;;6133825;23;20017;-82
2023/05/10 00:51:39;;;;;;;0.93;0.40;;;12.20;99.90;;;;;;6086231;23;20013;-82
2023/05/10 00:54:05;;;;;;;0.60;0.32;;;12.30;99.90;;;;;;6158636;23;20538;-82
2023/05/10 00:56:31;;;;;;;1.90;1.45;;;12.30;99.90;;;;;;6134538;23;20025;-83
2023/05/10 00:58:57;;;;;;;1.00;0.40;;;12.30;99.90;;;;;;6184862;23;20017;-87
2023/05/10 01:01:22;;;;;;;0.97;0.33;;;12.20;99.90;;;;;;6158742;23;20021;-82
2023/05/10 01:03:49;;;;;;;0.30;0.30;;;12.20;99.90;;;;;;6159021;23;20096;-83
2023/05/10 01:06:15;;;;;;;1.65;0.57;;;12.20;99.90;;;;;;6184531;23;20477;-83
2023/05/10 01:08:40;;;;;;;0.60;0.60;;;12.20;99.90;;;;;;6158578;23;20060;-82
2023/05/10 01:11:06;;;;;;;0.43;0.20;;;12.30;99.90;;;;;;6185052;23;20019;-83
2023/05/10 01:13:37;;;;;;;1.27;0.47;;;12.20;99.90;;;;;;6158862;23;20084;-82
2023/05/10 01:16:04;;;;;;;0.82;0.50;;;12.20;99.90;;;;;;6158751;23;20264;-83
2023/05/10 01:18:33;;;;;;;0.50;0.50;;;12.20;99.90;;;;;;6158558;23;20021;-83
2023/05/10 01:21:32;;;;;;;1.75;0.30;;;12.20;99.90;;;;;;6158824;23;20077;-89
2023/05/10 01:23:58;;;;;;;0.82;0.22;;;12.20;99.90;;;;;;6134441;23;20040;-88
2023/05/10 01:27:01;;;;;;;2.90;0.60;;;12.20;99.90;;;;;;6158442;23;20021;-82
2023/05/10 01:30:04;;;;;;;1.17;0.63;;;12.20;99.90;;;;;;6134073;23;20017;-83
2023/05/10 01:32:38;;;;;;;0.55;0.40;;;12.20;99.90;;;;;;6134053;23;20025;-83
2023/05/10 01:35:16;;;;;;;0.60;0.60;;;12.20;99.90;;;;;;6158621;23;20314;-83
2023/05/10 01:37:48;;;;;;;1.10;0.47;;;12.20;99.90;;;;;;6134601;23;20071;-82
2023/05/10 01:40:26;;;;;;;1.15;0.70;;;12.20;99.90;;;;;;6158712;23;20017;-83
2023/05/10 01:42:59;;;;;;;0.80;0.50;;;12.20;99.90;;;;;;6185319;23;20013;-82
2023/05/10 01:45:56;;;;;;;0.55;0.52;;;12.10;99.90;;;;;;6158667;23;20052;-82
2023/05/10 01:48:23;;;;;;;2.22;1.50;;;12.10;99.90;;;;;;6158175;23;20084;-82
2023/05/10 01:50:50;;;;;;;0.52;0.32;;;12.10;99.90;;;;;;6159167;23;20017;-86
2023/05/10 01:53:20;;;;;;;1.13;0.63;;;12.10;99.90;;;;;;6134171;23;20024;-82
2023/05/10 01:55:52;;;;;;;0.60;0.50;;;12.10;99.90;;;;;;6160547;23;20017;-85
2023/05/10 01:58:27;;;;;;;1.77;1.00;;;12.10;99.90;;;;;;6160392;23;20017;-83
2023/05/10 02:00:54;;;;;;;3.42;1.50;;;12.10;99.90;;;;;;6160473;23;20040;-82
2023/05/10 02:03:23;;;;;;;0.85;0.60;;;12.10;99.90;;;;;;6159813;23;20071;-83
2023/05/10 02:05:50;;;;;;;1.63;0.80;;;12.00;99.90;;;;;;6160566;23;20017;-82
2023/05/10 02:08:17;;;;;;;1.05;0.60;;;12.00;99.90;;;;;;6135409;23;20021;-83
2023/05/10 02:10:46;;;;;;;1.52;0.98;;;12.10;99.90;;;;;;6160810;23;20096;-83
2023/05/10 02:13:13;;;;;;;1.02;0.45;;;12.10;99.90;;;;;;6160177;23;20093;-83
2023/05/10 02:15:41;;;;;;;1.20;0.60;;;12.00;99.90;;;;;;6160658;23;20021;-82
2023/05/10 02:18:09;;;;;;;0.73;0.52;;;12.10;99.90;;;;;;6160093;23;20028;-83
2023/05/10 02:20:35;;;;;;;0.30;0.25;;;12.00;99.90;;;;;;6160517;23;20089;-83
2023/05/10 02:23:03;;;;;;;1.48;0.55;;;12.00;99.90;;;;;;6160387;23;20021;-82
2023/05/10 02:25:30;;;;;;;2.53;0.75;;;12.00;99.90;;;;;;6135321;23;20021;-82
2023/05/10 02:27:57;;;;;;;1.00;0.73;;;12.00;99.90;;;;;;6111164;23;20337;-83
2023/05/10 02:30:24;;;;;;;0.70;0.60;;;12.00;99.90;;;;;;6159859;23;20025;-83
2023/05/10 02:32:51;;;;;;;;;;;12.00;99.90;;;;;;6161010;23;20017;-82
2023/05/10 02:35:17;;;;;;;1.00;0.43;;;12.00;99.90;;;;;;6159985;23;19916;-83
2023/05/10 02:37:45;;;;;;;2.08;0.30;;;12.00;99.90;;;;;;6135536;23;20053;-83
2023/05/10 02:40:12;;;;;;;2.60;0.70;;;12.00;99.90;;;;;;6135399;23;20020;-83
2023/05/10 02:42:42;;;;;;;0.75;0.57;;;12.00;99.90;;;;;;6135877;23;20017;-83
2023/05/10 02:45:15;;;;;;;0.45;0.35;;;12.00;99.90;;;;;;6134730;23;20053;-89
2023/05/10 02:47:40;;;;;;;0.95;0.43;;;12.00;99.90;;;;;;6160387;23;20025;-84
2023/05/10 02:50:07;;;;;;;1.33;0.77;;;12.00;99.90;;;;;;6135386;23;20020;-83
2023/05/10 02:52:47;;;;;;;0.98;0.57;;;12.00;99.90;;;;;;6159801;23;20245;-82
2023/05/10 02:55:16;;;;;;;0.50;0.50;;;12.00;99.90;;;;;;6159915;23;20032;-83
2023/05/10 02:57:52;;;;;;;0.88;0.47;;;12.00;99.90;;;;;;6135158;23;20028;-83
2023/05/10 03:00:18;;;;;;;1.10;0.75;;;12.00;99.90;;;;;;6159570;23;20053;-83
2023/05/10 03:02:43;;;;;;;0.77;0.43;;;12.00;99.90;;;;;;6160070;23;20017;-82
2023/05/10 03:05:09;;;;;;;1.37;0.50;;;12.00;99.90;;;;;;6135325;23;20087;-88
2023/05/10 03:07:35;;;;;;;2.03;0.47;;;12.00;99.90;;;;;;6159994;23;20024;-83
2023/05/10 03:10:02;;;;;;;0.93;0.60;;;12.00;99.90;;;;;;6135423;23;20318;-82
2023/05/10 03:12:53;;;;;;;0.85;0.68;;;12.00;99.90;;;;;;6135075;23;20025;-82
2023/05/10 03:15:24;;;;;;;1.70;0.40;;;12.00;99.90;;;;;;6135096;23;20021;-83
2023/05/10 03:18:09;;;;;;;0.63;0.57;;;12.00;99.90;;;;;;6160454;23;20025;-82
2023/05/10 03:20:42;;;;;;;0.45;0.28;;;12.00;99.90;;;;;;6159699;23;20024;-82
2023/05/10 03:23:11;;;;;;;0.65;0.43;;;11.90;99.90;;;;;;6160071;23;20448;-82
2023/05/10 03:25:39;;;;;;;1.08;0.75;;;11.90;99.90;;;;;;6159312;23;20025;-82
2023/05/10 03:28:06;;;;;;;0.73;0.73;;;11.90;99.90;;;;;;6135648;23;20017;-82
2023/05/10 03:30:33;;;;;;;1.75;1.02;;;11.90;99.90;;;;;;6159330;23;20103;-82
2023/05/10 03:33:06;;;;;;;0.88;0.60;;;11.90;99.90;;;;;;6160021;23;20028;-82
2023/05/10 03:35:31;;;;;;;0.63;0.43;;;11.90;99.90;;;;;;6159798;23;20096;-83
2023/05/10 03:37:57;;;;;;;1.17;0.30;;;11.90;99.90;;;;;;6209783;23;20380;-83
2023/05/10 03:40:24;;;;;;;1.83;0.50;;;11.90;99.90;;;;;;6110098;23;20100;-83
2023/05/10 03:42:50;;;;;;;0.77;0.65;;;11.90;99.90;;;;;;6135102;23;20017;-82
2023/05/10 03:45:15;;;;;;;3.03;0.80;;;11.90;99.90;;;;;;6159794;23;20495;-90
2023/05/10 03:47:41;;;;;;;0.77;0.40;;;11.90;99.90;;;;;;6159860;23;20421;-83
2023/05/10 03:50:07;;;;;;;0.50;0.50;;;11.90;99.90;;;;;;6158879;23;20284;-82
2023/05/10 03:52:33;;;;;;;0.90;0.55;;;11.80;99.90;;;;;;6159042;23;20021;-83
2023/05/10 03:54:59;;;;;;;0.40;0.37;;;11.90;99.90;;;;;;6159690;23;20472;-83
2023/05/10 03:57:24;;;;;;;0.60;0.37;;;11.80;99.90;;;;;;6184047;23;20032;-83
2023/05/10 03:59:50;;;;;;;1.53;0.67;;;11.80;99.90;;;;;;6184469;23;20394;-83
2023/05/10 04:02:16;;;;;;;0.27;0.23;;;11.80;99.90;;;;;;6110402;23;20021;-92
2023/05/10 04:04:42;;;;;;;1.80;0.70;;;11.80;99.90;;;;;;6134792;23;20060;-83
2023/05/10 04:07:07;;;;;;;1.50;0.53;;;11.80;99.90;;;;;;6134841;23;20072;-83
2023/05/10 04:09:33;;;;;;;1.97;1.07;;;11.80;99.90;;;;;;6134482;23;20021;-83
2023/05/10 04:12:00;;;;;;;0.77;0.40;;;11.70;99.90;;;;;;6183956;23;20024;-82
2023/05/10 04:14:26;;;;;;;0.73;0.65;;;11.80;99.90;;;;;;6110232;23;20025;-83
2023/05/10 04:16:51;;;;;;;0.50;0.50;;;11.80;99.90;;;;;;6159266;23;20467;-82
2023/05/10 04:19:17;;;;;;;0.57;0.37;;;11.80;99.90;;;;;;6110250;23;20057;-89
2023/05/10 04:21:45;;;;;;;0.57;0.57;;;11.70;99.90;;;;;;6134687;23;20025;-82
2023/05/10 04:24:11;;;;;;;0.57;0.20;;;11.80;99.90;;;;;;6135375;23;20021;-83
2023/05/10 04:26:37;;;;;;;0.40;0.40;;;11.70;99.90;;;;;;6159199;23;20072;-83
2023/05/10 04:29:03;;;;;;;3.57;0.93;;;11.70;99.90;;;;;;6159544;23;20341;-82
2023/05/10 04:31:28;;;;;;;0.53;0.40;;;11.70;99.90;;;;;;6159016;23;20013;-83
2023/05/10 04:33:54;;;;;;;3.33;0.73;;;11.70;99.90;;;;;;6134856;23;20507;-82
2023/05/10 04:36:20;;;;;;;0.40;0.40;;;11.70;99.90;;;;;;6110296;23;20021;-88
2023/05/10 04:38:46;;;;;;;1.15;0.30;;;11.70;99.90;;;;;;6159150;23;20252;-82
2023/05/10 04:41:12;;;;;;;0.98;0.77;;;11.70;99.90;;;;;;6134687;23;20441;-82
2023/05/10 04:43:38;;;;;;;0.77;0.68;;;11.70;99.90;;;;;;6184767;23;20028;-83
2023/05/10 04:46:05;;;;;;;1.10;0.73;;;11.70;99.90;;;;;;6158917;23;20337;-82
2023/05/10 04:48:30;;;;;;;1.58;0.57;;;11.70;99.90;;;;;;6133761;23;20071;-83
2023/05/10 04:50:56;;;;;;;0.30;0.28;;;11.70;99.90;;;;;;6159404;23;20025;-83
2023/05/10 04:53:22;;;;;;;0.83;0.40;;;11.70;99.90;;;;;;6134600;23;20048;-88
2023/05/10 04:55:48;;;;;;;2.00;0.52;;;11.70;99.90;;;;;;6134606;23;20052;-83
2023/05/10 04:58:14;;;;;;;1.70;0.45;;;11.70;99.90;;;;;;6185105;23;20479;-83
2023/05/10 05:00:40;;;;;;;0.83;0.20;;;11.70;99.90;;;;;;6109907;23;20021;-84
2023/05/10 05:03:05;;;;;;;0.43;0.30;;;11.70;99.90;;;;;;6159057;23;20061;-83
2023/05/10 05:05:31;;;;;;;0.67;0.40;;;11.70;99.90;;;;;;6134306;23;20021;-83
2023/05/10 05:07:57;;;;;;;0.70;0.40;;;11.80;99.90;;;;;;6109886;23;20017;-83
2023/05/10 05:10:22;;;;;;;0.40;0.20;;;11.80;99.90;;;;;;6134327;23;20009;-83
2023/05/10 05:12:48;;;;;;;1.17;0.37;;;11.80;99.90;;;;;;6158616;23;20064;-83
2023/05/10 05:15:16;;;;;;;0.43;0.30;;;11.80;99.90;;;;;;6159455;23;20456;-80
2023/05/10 05:17:42;;;;;;;0.60;0.35;;;11.80;99.90;;;;;;6158173;23;20340;-82
2023/05/10 05:20:09;;;;;;;0.30;0.30;;;11.80;99.90;;;;;;6134061;23;20024;-81
2023/05/10 05:22:36;;;;;;;0.75;0.25;;;11.80;99.90;;;;;;6182091;23;20021;-81
2023/05/10 05:25:03;;;;;;;1.05;0.50;;;11.80;99.90;;;;;;6132596;23;20029;-82
2023/05/10 05:27:29;;;;;;;0.20;0.20;;;11.80;99.90;;;;;;6133472;23;20025;-82
2023/05/10 05:30:01;;;;;;;0.77;0.30;;;11.80;99.90;;;;;;6135630;23;20017;-82
2023/05/10 05:32:30;;;;;;;0.28;0.28;;;11.80;99.90;;;;;;6184937;23;20096;-86
2023/05/10 05:34:56;;;;;;;0.57;0.32;;;11.80;99.90;;;;;;6160290;23;20024;-82
2023/05/10 05:37:22;;;;;;;0.47;0.45;;;11.80;99.90;;;;;;6135685;23;20009;-82
2023/05/10 05:39:48;;;;;;;0.93;0.30;;;11.80;99.90;;;;;;6159882;23;20096;-82
2023/05/10 05:42:15;;;;;;;0.15;0.15;;;11.80;99.90;;;;;;6160203;23;20448;-88
2023/05/10 05:44:41;;;;;;;0.30;0.30;;;11.80;99.90;;;;;;6160134;23;20021;-82
2023/05/10 05:47:07;;;;;;;1.37;0.40;;;11.80;99.90;;;;;;6160312;23;20072;-84
2023/05/10 05:49:33;;;;;;;0.70;0.27;;;11.80;99.90;;;;;;6119826;23;20445;-85
2023/05/10 05:52:03;;;;;;;0.50;0.38;;;11.80;99.90;;;;;;6156644;23;20032;-83
2023/05/10 05:54:29;;;;;;;0.20;0.20;;;11.80;99.90;;;;;;6130701;23;20018;-89
2023/05/10 05:56:59;;;;;;;;;;;11.80;99.90;;;;;;6107393;23;20149;-82
2023/05/10 05:59:24;;;;;;;1.50;0.22;;;11.80;99.90;;;;;;6180508;23;19924;-82
2023/05/10 06:01:50;;;;;;;0.30;0.30;;;11.80;99.90;;;;;;6129821;23;20025;-83
2023/05/10 06:04:16;;;;;;;0.40;0.40;;;11.80;99.90;;;;;;6130610;23;20253;-82
2023/05/10 06:06:42;;;;;;;0.10;0.10;;;11.80;99.90;;;;;;6130059;23;20258;-82
2023/05/10 06:09:09;;;;;;;0.15;0.15;;;11.80;99.90;;;;;;6130804;23;20021;-82
2023/05/10 06:11:35;;;;;;;0.55;0.38;;;11.80;99.90;;;;;;6106078;23;20033;-82
2023/05/10 06:14:01;;;;;;;1.45;0.60;;;11.80;99.90;;;;;;6082782;23;20017;-82
2023/05/10 06:16:27;;;;;;;;;;;11.80;99.90;;;;;;6157434;23;20017;-82
2023/05/10 06:18:53;;;;;;;0.52;0.38;;;11.80;99.90;;;;;;6130598;23;20244;-82
2023/05/10 06:21:19;;;;;;;0.25;0.22;;;11.80;99.90;;;;;;6130313;23;20068;-82
2023/05/10 06:23:45;;;;;;;0.53;0.40;;;11.80;99.90;;;;;;6081745;23;20053;-83
2023/05/10 06:26:11;;;;;;;0.67;0.30;;;11.80;99.90;;;;;;6130611;23;20018;-82
2023/05/10 06:28:39;;;;;;;0.05;0.05;;;11.80;99.90;;;;;;6130647;23;20269;-81
2023/05/10 06:31:06;;;;;;;0.20;0.20;;;11.80;99.90;;;;;;6106598;23;20021;-83
2023/05/10 06:33:32;;;;;;;0.20;0.15;;;11.90;99.90;;;;;;6130696;23;20013;-83
2023/05/10 06:35:58;;;;;;;0.10;0.10;;;11.80;99.90;;;;;;6106038;23;20093;-83
2023/05/10 06:38:24;;;;;;;0.20;0.10;;;11.80;99.90;;;;;;6106348;23;20062;-83
2023/05/10 06:40:49;;;;;;;0.90;0.17;;;11.80;99.90;;;;;;6130084;23;20025;-82
2023/05/10 06:43:15;;;;;;;0.00;0.00;;;11.90;99.90;;;;;;6081767;23;20010;-85
2023/05/10 06:45:41;;;;;;;1.40;0.33;;;11.80;99.90;;;;;;6130298;23;20249;-83
2023/05/10 06:48:07;;;;;;;0.10;0.10;;;11.90;99.90;;;;;;6082030;23;20022;-83
2023/05/10 06:50:33;;;;;;;0.38;0.30;;;11.90;99.90;;;;;;6154386;23;20017;-85
2023/05/10 06:52:59;;;;;;;0.50;0.23;;;11.90;99.90;;;;;;6159600;23;20027;-84
2023/05/10 06:55:26;;;;;;;0.52;0.47;;;11.90;99.90;;;;;;6135622;23;20248;-83
2023/05/10 06:57:51;;;;;;;0.10;0.10;;;11.90;99.90;;;;;;6159772;23;20021;-83
2023/05/10 07:00:18;;;;;;;0.10;0.10;;;11.90;99.90;;;;;;6160165;23;20436;-83
2023/05/10 07:02:44;;;;;;;0.00;0.00;;;11.90;99.90;;;;;;6159675;23;20433;-84
2023/05/10 07:05:10;;;;;;;0.17;0.00;;;11.90;99.90;;;;;;6160488;23;20028;-83
2023/05/10 07:07:35;;;;;;;0.03;0.03;;;11.90;99.90;;;;;;6160258;23;20020;-83
2023/05/10 07:10:02;;;;;;;0.00;0.00;;;11.90;99.90;;;;;;6159599;23;20529;-83
2023/05/10 07:12:28;;;;;;;;;;;11.90;99.90;;;;;;6160522;23;20391;-83
2023/05/10 07:14:53;;;;;;;0.00;0.00;;;11.90;99.90;;;;;;6135156;23;19948;-83
2023/05/10 07:17:19;;;;;;;0.20;0.17;;;11.90;99.90;;;;;;6159518;23;20515;-83
2023/05/10 07:19:45;;;;;;;0.13;0.00;;;11.90;99.90;;;;;;6134957;23;20016;-83
2023/05/10 07:22:11;;;;;;;0.00;0.00;;;11.90;99.90;;;;;;6159801;23;20703;-83
2023/05/10 07:24:38;;;;;;;0.00;0.00;;;11.90;99.90;;;;;;6184826;23;20104;-83
2023/05/10 07:27:04;;;;;;;;;;;11.90;99.90;;;;;;6186349;23;20028;-83
2023/05/10 07:29:29;;;;;;;0.00;0.00;;;12.00;99.90;;;;;;6135424;23;19955;-83
2023/05/10 07:31:55;;;;;;;0.07;0.00;;;12.00;99.90;;;;;;6134541;23;20024;-84
2023/05/10 07:34:21;;;;;;;0.00;0.00;;;12.00;99.90;;;;;;6135373;23;20013;-83
2023/05/10 07:36:47;;;;;;;0.00;0.00;;;12.10;99.90;;;;;;6159410;23;20082;-84
2023/05/10 07:39:13;;;;;;;0.00;0.00;;;12.10;99.90;;;;;;6159777;23;20021;-83
2023/05/10 07:41:38;;;;;;;0.00;0.00;;;12.10;99.90;;;;;;6185648;23;20013;-84
2023/05/10 07:44:05;;;;;;;0.50;0.00;;;12.20;99.90;;;;;;6134889;23;20087;-84
2023/05/10 07:46:31;;;;;;;0.00;0.00;;;12.20;99.90;;;;;;6159592;23;20049;-84
2023/05/10 07:48:57;;;;;;;0.03;0.03;;;12.20;99.90;;;;;;6158611;23;20028;-84
2023/05/10 07:51:22;;;;;;;0.20;0.10;;;12.20;99.90;;;;;;6159397;23;20028;-84
2023/05/10 07:53:48;;;;;;;0.00;0.00;;;12.20;99.90;;;;;;6134709;23;20013;-84
2023/05/10 07:56:31;;;;;;;0.40;0.10;;;12.30;99.90;;;;;;6135175;23;20333;-84
2023/05/10 07:58:58;;;;;;;0.00;0.00;;;12.30;99.90;;;;;;6159216;23;20067;-84
2023/05/10 08:01:24;;;;;;;0.00;0.00;;;12.40;99.90;;;;;;6134878;23;20017;-84
2023/05/10 08:03:51;;;;;;;0.08;0.08;;;12.40;99.90;;;;;;6134221;23;20021;-84
2023/05/10 08:06:20;;;;;;;0.00;0.00;;;12.50;99.90;;;;;;6135356;23;20013;-84
2023/05/10 08:08:54;;;;;;;0.10;0.10;;;12.60;99.90;;;;;;6159035;23;20377;-85
2023/05/10 08:11:20;;;;;;;0.00;0.00;;;12.60;99.90;;;;;;6185822;23;20028;-84
2023/05/10 08:13:47;;;;;;;0.05;0.05;;;12.60;99.90;;;;;;6158563;23;20013;-84
2023/05/10 08:16:13;;;;;;;0.00;0.00;;;12.60;99.90;;;;;;6134784;23;20437;-84
2023/05/10 08:18:40;;;;;;;0.00;0.00;;;12.70;99.90;;;;;;6134986;23;20076;-84
2023/05/10 08:21:06;;;;;;;0.15;0.15;;;12.80;99.90;;;;;;6158832;23;20181;-84
2023/05/10 08:23:32;;;;;;;0.03;0.03;;;12.80;99.90;;;;;;6159196;23;20021;-85
2023/05/10 08:25:57;;;;;;;0.00;0.00;;;12.80;99.90;;;;;;6134109;23;20023;-84
2023/05/10 08:28:23;;;;;;;0.73;0.20;;;12.80;99.90;;;;;;6110224;23;20052;-88
2023/05/10 08:30:50;;;;;;;0.50;0.23;;;12.70;99.90;;;;;;6137360;23;20039;-89
2023/05/10 08:33:18;;;;;;;0.10;0.10;;;12.70;99.90;;;;;;6188337;23;20031;-86
2023/05/10 08:35:44;;;;;;;0.13;0.10;;;12.70;99.90;;;;;;6159097;23;20021;-83
2023/05/10 08:38:10;;;;;;;0.10;0.00;;;12.60;99.90;;;;;;6134429;23;20037;-83
2023/05/10 08:40:37;;;;;;;0.10;0.10;;;12.60;99.90;;;;;;6134212;23;20448;-83
2023/05/10 08:43:08;;;;;;;0.20;0.20;;;12.60;99.90;;;;;;6158723;23;20500;-83
2023/05/10 08:45:38;;;;;;;0.10;0.10;;;12.50;99.90;;;;;;6134711;23;20017;-83
2023/05/10 08:48:06;;;;;;;0.13;0.08;;;12.50;99.90;;;;;;6158488;23;20016;-83
2023/05/10 08:50:33;;;;;;;0.50;0.50;;;12.50;99.90;;;;;;6134762;23;20030;-84
2023/05/10 08:53:03;;;;;;;1.17;0.35;;;12.50;99.90;;;;;;6129373;23;20492;-84
2023/05/10 08:55:29;;;;;;;0.10;0.10;;;12.40;99.90;;;;;;6156115;23;20048;-84
2023/05/10 08:57:56;;;;;;;0.30;0.20;;;12.40;99.90;;;;;;6105275;23;20025;-83
2023/05/10 09:00:25;;;;;;;0.35;0.28;;;12.40;99.90;;;;;;6155664;23;20021;-86
2023/05/10 09:02:51;;;;;;;0.10;0.10;;;12.40;99.90;;;;;;6133332;23;20018;-88
2023/05/10 09:05:17;;;;;;;0.10;0.10;;;12.40;99.90;;;;;;6155116;23;20017;-85
2023/05/10 09:07:43;;;;;;;0.20;0.20;;;12.40;99.90;;;;;;6104996;23;20077;-85
2023/05/10 09:10:10;;;;;;;0.25;0.10;;;12.50;99.90;;;;;;6057066;23;20013;-85
2023/05/10 09:12:36;;;;;;;0.52;0.20;;;12.70;99.90;;;;;;6129100;23;20072;-84
2023/05/10 09:15:03;;;;;;;0.63;0.15;;;12.80;99.90;;;;;;6129163;23;20021;-85
2023/05/10 09:17:30;;;;;;;0.63;0.28;;;12.90;99.90;;;;;;6129484;23;20025;-84
2023/05/10 09:19:59;;;;;;;;;;;12.90;99.90;;;;;;6104849;23;20026;-85
2023/05/10 09:22:25;;;;;;;0.20;0.20;;;13.00;99.90;;;;;;6080617;23;19955;-84
2023/05/10 09:25:10;;;;;;;0.50;0.20;;;13.00;99.90;;;;;;6128995;23;20025;-85
2023/05/10 09:27:38;;;;;;;0.65;0.20;;;12.90;99.90;;;;;;6104505;23;20080;-84
2023/05/10 09:30:05;;;;;;;0.20;0.00;;;12.90;99.90;;;;;;6128439;23;20018;-86
2023/05/10 09:32:44;;;;;;;0.60;0.20;;;12.90;99.90;;;;;;6104910;23;20345;-84
2023/05/10 09:35:18;;;;;;;0.35;0.13;;;12.90;99.90;;;;;;6129122;23;20349;-84
2023/05/10 09:37:47;;;;;;;0.75;0.20;;;12.90;99.90;;;;;;6129682;23;20013;-85
2023/05/10 09:40:14;;;;;;;0.22;0.22;;;12.90;99.90;;;;;;6129037;23;20029;-85
2023/05/10 09:42:55;;;;;;;0.10;0.10;;;12.90;99.90;;;;;;6129446;23;20021;-85
2023/05/10 09:45:25;;;;;;;0.20;0.20;;;13.00;99.90;;;;;;6105177;23;20018;-85
2023/05/10 09:47:51;;;;;;;0.30;0.17;;;13.00;99.90;;;;;;6129017;23;20014;-85
2023/05/10 09:50:16;;;;;;;0.40;0.40;;;13.00;99.90;;;;;;6104507;23;20149;-85
2023/05/10 09:52:48;;;;;;;0.20;0.13;;;13.00;99.90;;;;;;6129697;23;20025;-85
2023/05/10 09:55:14;;;;;;;0.35;0.20;;;13.00;99.90;;;;;;6128878;23;20014;-85
2023/05/10 09:57:40;;;;;;;0.10;0.10;;;13.00;99.90;;;;;;6129334;23;20329;-85
2023/05/10 10:00:07;;;;;;;0.30;0.30;;;13.00;99.90;;;;;;6128977;23;20025;-85
2023/05/10 10:02:32;;;;;;;;;;;13.10;99.90;;;;;;6081601;23;20049;-85
2023/05/10 10:05:01;;;;;;;0.30;0.20;;;13.20;99.90;;;;;;6128842;23;19916;-86
2023/05/10 10:07:27;;;;;;;0.32;0.22;;;13.40;99.90;;;;;;6080761;23;20017;-85
2023/05/10 10:09:53;;;;;;;0.20;0.20;;;13.50;99.90;;;;;;6105013;23;20017;-84
2023/05/10 10:12:20;;;;;;;2.33;0.30;;;13.60;99.90;;;;;;6128506;23;20017;-85
2023/05/10 10:14:50;;;;;;;;;;;13.70;99.90;;;;;;6130107;23;20021;-85
2023/05/10 10:17:16;;;;;;;0.45;0.30;;;13.60;99.90;;;;;;6130715;23;19924;-85
2023/05/10 10:19:43;;;;;;;0.40;0.13;;;13.60;99.90;;;;;;6106780;23;20109;-84
2023/05/10 10:22:11;;;;;;;0.88;0.45;;;13.60;99.90;;;;;;6081188;23;20033;-84
2023/05/10 10:24:41;;;;;;;0.40;0.10;;;13.50;99.90;;;;;;6130432;23;20097;-85
2023/05/10 10:27:20;;;;;;;0.45;0.22;;;13.50;99.90;;;;;;6129760;23;20029;-87
2023/05/10 10:30:08;;;;;;;1.52;0.40;;;13.50;99.90;;;;;;6106107;23;20344;-88
2023/05/10 10:33:07;;;;;;;0.40;0.40;;;13.50;99.90;;;;;;6130417;23;20112;-85
2023/05/10 10:35:33;;;;;;;;;;;13.50;99.90;;;;;;6106137;23;20025;-84
2023/05/10 10:37:59;;;;;;;0.73;0.52;;;13.50;99.90;;;;;;6155078;23;19916;-84
2023/05/10 10:40:33;;;;;;;0.52;0.43;;;13.50;99.90;;;;;;6129858;23;20067;-85
2023/05/10 10:43:21;;;;;;;0.35;0.32;;;13.60;99.90;;;;;;6105722;23;20017;-85
2023/05/10 10:46:14;;;;;;;0.40;0.35;;;13.60;99.90;;;;;;6130850;23;20524;-84
2023/05/10 10:48:41;;;;;;;1.08;0.40;;;13.70;99.90;;;;;;6130289;23;20049;-85
2023/05/10 10:51:07;;;;;;;1.10;0.52;;;13.60;99.90;;;;;;6081333;23;20014;-85
2023/05/10 10:53:36;;;;;;;1.17;0.60;;;13.60;99.90;;;;;;6130054;23;20083;-85
2023/05/10 10:56:09;;;;;;;0.65;0.30;;;13.70;99.90;;;;;;6106447;23;20074;-85
2023/05/10 10:58:37;;;;;;;0.30;0.30;;;13.80;99.90;;;;;;6105576;23;20022;-85
2023/05/10 11:01:19;;;;;;;0.47;0.40;;;13.80;99.90;;;;;;6129999;23;20022;-84
2023/05/10 11:03:59;;;;;;;0.55;0.20;;;13.90;99.90;;;;;;6129941;23;20354;-85
2023/05/10 11:06:33;;;;;;;0.70;0.60;;;13.90;99.90;;;;;;6129990;23;20543;-85
2023/05/10 11:09:09;;;;;;;2.20;0.68;;;13.90;99.90;;;;;;6156598;23;20334;-84
2023/05/10 11:11:35;;;;;;;0.63;0.40;;;13.90;99.90;;;;;;6105741;23;20021;-84
2023/05/10 11:14:06;;;;;;;0.75;0.40;;;13.90;99.90;;;;;;6129811;23;20018;-84
2023/05/10 11:16:44;;;;;;;0.32;0.10;;;14.00;99.90;;;;;;6129716;23;20457;-84
2023/05/10 11:19:12;;;;;;;0.47;0.38;;;14.00;99.90;;;;;;6104944;23;20017;-86
2023/05/10 11:22:11;;;;;;;0.60;0.60;;;14.00;99.90;;;;;;6129712;23;20113;-87
2023/05/10 11:24:37;;;;;;;0.93;0.50;;;14.00;99.90;;;;;;6129641;23;20376;-84
2023/05/10 11:27:03;;;;;;;0.38;0.30;;;14.00;99.90;;;;;;6104845;23;20048;-84
2023/05/10 11:29:29;;;;;;;0.82;0.40;;;14.00;99.90;;;;;;6081147;23;20021;-83
2023/05/10 11:31:58;;;;;;;0.28;0.10;;;14.10;99.90;;;;;;6105340;23;20021;-83
2023/05/10 11:34:25;;;;;;;1.73;0.52;;;14.10;99.90;;;;;;6129347;23;20525;-83
2023/05/10 11:36:53;;;;;;;0.70;0.30;;;14.10;99.90;;;;;;6130402;23;20449;-84
2023/05/10 11:39:20;;;;;;;0.80;0.40;;;14.20;99.90;;;;;;6104553;23;20017;-84
2023/05/10 11:41:48;;;;;;;0.65;0.28;;;14.30;99.90;;;;;;6129691;23;20032;-82
2023/05/10 11:44:14;;;;;;;0.90;0.47;;;14.30;99.90;;;;;;6129230;23;20072;-82
2023/05/10 11:46:40;;;;;;;0.43;0.38;;;14.40;99.90;;;;;;6081033;23;20053;-83
2023/05/10 11:49:07;;;;;;;0.40;0.40;;;14.40;99.90;;;;;;6133377;23;20020;-84
2023/05/10 11:51:36;;;;;;;0.43;0.35;;;14.40;99.90;;;;;;6134784;23;20067;-83
2023/05/10 11:54:10;;;;;;;0.88;0.57;;;14.30;99.90;;;;;;6135173;23;20021;-83
2023/05/10 11:56:37;;;;;;;1.77;0.43;;;14.20;99.90;;;;;;6134778;23;20056;-84
2023/05/10 11:59:03;;;;;;;0.65;0.38;;;14.20;99.90;;;;;;6135057;23;20096;-83
2023/05/10 12:01:30;;;;;;;0.93;0.47;;;14.10;99.90;;;;;;6184402;23;20020;-82
2023/05/10 12:04:00;;;;;;;0.50;0.50;;;14.00;99.90;;;;;;6135176;23;20021;-82
2023/05/10 12:06:31;;;;;;;0.93;0.63;;;13.90;99.90;;;;;;6134622;23;20028;-83
2023/05/10 12:08:58;;;;;;;0.43;0.43;;;13.80;99.90;;;;;;6159518;23;20448;-83
2023/05/10 12:11:28;;;;;;;1.20;0.57;;;13.80;99.90;;;;;;6134670;23;20071;-83
2023/05/10 12:13:55;;;;;;;0.28;0.20;;;13.80;99.90;;;;;;6134910;23;20021;-83
2023/05/10 12:16:24;;;;;;;2.22;1.00;;;13.80;99.90;;;;;;6158938;23;20433;-82
2023/05/10 12:18:56;;;;;;;2.20;1.13;;;13.80;99.90;;;;;;6159433;23;20028;-82
2023/05/10 12:21:21;;;;;;;0.93;0.80;;;13.80;99.90;;;;;;6158855;23;20024;-82
2023/05/10 12:23:51;;;;;;;0.20;0.20;;;13.80;99.90;;;;;;6185213;23;20079;-83
2023/05/10 12:26:17;;;;;;;0.75;0.45;;;13.80;99.90;;;;;;6158771;23;20065;-83
2023/05/10 12:28:43;;;;;;;0.63;0.52;;;13.80;99.90;;;;;;6159117;23;20453;-82
2023/05/10 12:31:08;;;;;;;0.50;0.20;;;13.80;99.90;;;;;;6159045;23;20013;-83
2023/05/10 12:33:41;;;;;;;0.52;0.50;;;13.90;99.90;;;;;;6158757;23;20071;-82
2023/05/10 12:36:07;;;;;;;0.22;0.20;;;13.90;99.90;;;;;;6159153;23;20060;-83
2023/05/10 12:38:33;;;;;;;1.10;0.50;;;14.00;99.90;;;;;;6158440;23;20017;-82
2023/05/10 12:41:00;;;;;;;;;;;14.10;99.90;;;;;;6159198;23;20021;-82
2023/05/10 12:43:26;;;;;;;0.50;0.30;;;14.20;99.90;;;;;;6158745;23;20243;-83
2023/05/10 12:45:51;;;;;;;0.70;0.43;;;14.20;99.90;;;;;;6134600;23;20016;-84
2023/05/10 12:48:17;;;;;;;0.63;0.32;;;14.40;99.90;;;;;;6134160;23;20107;-89
2023/05/10 12:50:43;;;;;;;0.50;0.43;;;14.40;99.90;;;;;;6134112;23;20021;-84
2023/05/10 12:53:09;;;;;;;0.38;0.35;;;14.50;99.90;;;;;;6134639;23;20017;-83
2023/05/10 12:55:35;;;;;;;0.25;0.25;;;14.60;99.90;;;;;;6158684;23;20021;-84